createdAt,value
2022-09-12T00:00:51.614Z,80.11
2022-09-12T00:06:22.347Z,80.60
2022-09-12T00:11:27.003Z,81.11
2022-09-12T00:16:31.672Z,81.25
2022-09-12T00:21:36.308Z,81.94
2022-09-12T00:26:39.275Z,81.96
2022-09-12T00:31:41.951Z,82.22
2022-09-12T00:36:45.086Z,82.22
2022-09-12T00:41:47.787Z,82.43
2022-09-12T00:46:59.506Z,82.65
2022-09-12T00:52:21.046Z,82.70
2022-09-12T00:57:30.078Z,83.13
2022-09-12T01:02:32.788Z,83.45
2022-09-12T01:07:40.045Z,83.51
2022-09-12T01:12:43.825Z,83.56
2022-09-12T01:17:58.687Z,83.75
2022-09-12T01:23:31.284Z,83.75
2022-09-12T01:28:52.308Z,83.80
2022-09-12T01:34:26.475Z,83.84
2022-09-12T01:40:03.391Z,83.78
2022-09-12T01:45:39.636Z,84.04
2022-09-12T01:51:00.467Z,84.33
2022-09-12T01:56:26.628Z,84.10
2022-09-12T02:01:34.017Z,84.25
2022-09-12T02:06:56.171Z,84.34
2022-09-12T02:12:01.533Z,84.46
2022-09-12T02:17:13.098Z,84.52
2022-09-12T02:22:19.942Z,84.80
2022-09-12T02:27:30.312Z,84.92
2022-09-12T02:32:43.660Z,84.79
2022-09-12T02:38:05.000Z,84.87
2022-09-12T02:43:07.888Z,85.03
2022-09-12T02:48:23.921Z,84.97
2022-09-12T02:53:26.818Z,84.84
2022-09-12T02:58:32.342Z,85.18
2022-09-12T03:03:50.241Z,85.03
2022-09-12T03:09:33.150Z,85.06
2022-09-12T03:14:47.852Z,85.22
2022-09-12T03:20:19.628Z,85.25
2022-09-12T03:25:29.400Z,85.14
2022-09-12T03:30:37.149Z,85.37
2022-09-12T03:35:40.524Z,84.97
2022-09-12T03:40:43.810Z,84.76
2022-09-12T03:45:52.016Z,84.49
2022-09-12T03:50:54.777Z,84.12
2022-09-12T03:55:58.302Z,84.31
2022-09-12T04:01:01.478Z,84.56
2022-09-12T04:06:05.042Z,84.40
2022-09-12T04:11:11.613Z,84.48
2022-09-12T04:16:15.716Z,84.59
2022-09-12T04:21:22.024Z,85.07
2022-09-12T04:26:24.754Z,85.47
2022-09-12T04:31:27.522Z,85.29
2022-09-12T04:36:30.349Z,85.34
2022-09-12T04:41:35.689Z,85.33
2022-09-12T04:46:42.617Z,85.44
2022-09-12T04:51:46.202Z,85.37
2022-09-12T04:56:50.607Z,85.49
2022-09-12T05:01:53.550Z,85.24
2022-09-12T05:06:56.352Z,85.10
2022-09-12T05:12:04.108Z,85.38
2022-09-12T05:17:08.196Z,85.04
2022-09-12T05:22:10.894Z,84.94
2022-09-12T05:27:13.565Z,84.77
2022-09-12T05:32:16.228Z,84.93
2022-09-12T05:37:18.988Z,85.37
2022-09-12T05:42:22.004Z,85.20
2022-09-12T05:47:24.903Z,85.44
2022-09-12T05:52:27.773Z,85.32
2022-09-12T05:57:30.518Z,85.16
2022-09-12T06:02:35.009Z,85.30
2022-09-12T06:07:38.583Z,84.92
2022-09-12T06:12:41.284Z,84.76
2022-09-12T06:17:46.416Z,84.35
2022-09-12T06:22:55.794Z,84.15
2022-09-12T06:27:58.751Z,83.87
2022-09-12T06:33:01.506Z,83.66
2022-09-12T06:38:05.410Z,83.79
2022-09-12T06:43:08.078Z,83.51
2022-09-12T06:48:10.738Z,83.36
2022-09-12T06:53:13.374Z,83.08
2022-09-12T06:58:16.310Z,82.77
2022-09-12T07:03:19.538Z,82.56
2022-09-12T07:08:22.208Z,82.16
2022-09-12T07:13:25.527Z,81.83
2022-09-12T07:18:29.424Z,81.10
2022-09-12T07:23:32.770Z,80.64
2022-09-12T07:28:35.986Z,80.13
2022-09-12T07:33:40.032Z,79.41
2022-09-12T07:38:44.136Z,79.02
2022-09-12T07:43:48.075Z,77.71
2022-09-12T07:48:55.778Z,76.73
2022-09-12T07:53:58.601Z,76.42
2022-09-12T07:59:02.405Z,75.68
2022-09-12T08:04:05.386Z,75.90
2022-09-12T08:09:08.371Z,75.26
2022-09-12T08:14:11.304Z,74.61
2022-09-12T08:19:14.220Z,74.52
2022-09-12T08:24:17.496Z,74.13
2022-09-12T08:29:21.066Z,73.53
2022-09-12T08:34:27.685Z,73.65
2022-09-12T08:39:30.885Z,73.15
2022-09-12T08:44:53.623Z,73.08
2022-09-12T08:50:09.025Z,73.11
2022-09-12T08:55:27.678Z,73.48
2022-09-12T09:00:42.796Z,72.83
2022-09-12T09:06:02.607Z,72.68
2022-09-12T09:11:14.616Z,72.82
2022-09-12T09:16:48.378Z,73.48
2022-09-12T09:21:57.486Z,72.93
2022-09-12T09:27:41.610Z,71.90
2022-09-12T09:32:51.151Z,71.18
2022-09-12T09:38:18.917Z,69.69
2022-09-12T09:43:23.976Z,67.39
2022-09-12T09:48:33.054Z,66.95
2022-09-12T09:53:43.262Z,65.66
2022-09-12T09:58:46.115Z,65.03
2022-09-12T10:03:54.264Z,63.54
2022-09-12T10:09:14.804Z,63.01
2022-09-12T10:14:31.380Z,62.69
2022-09-12T10:19:40.400Z,61.87
2022-09-12T10:24:49.222Z,62.21
2022-09-12T10:30:00.636Z,61.61
2022-09-12T10:35:25.556Z,61.60
2022-09-12T10:41:03.823Z,61.48
2022-09-12T10:46:19.867Z,61.48
2022-09-12T10:51:25.881Z,61.45
2022-09-12T10:56:30.984Z,62.29
2022-09-12T11:01:45.245Z,62.59
2022-09-12T11:07:20.796Z,62.39
2022-09-12T11:12:35.292Z,61.66
2022-09-12T11:17:45.112Z,60.82
2022-09-12T11:23:17.210Z,60.36
2022-09-12T11:28:35.894Z,58.89
2022-09-12T11:33:56.509Z,57.86
2022-09-12T11:39:14.673Z,56.49
2022-09-12T11:44:21.494Z,55.26
2022-09-12T11:49:38.586Z,53.43
2022-09-12T11:54:59.606Z,53.61
2022-09-12T12:00:27.807Z,55.37
2022-09-12T12:06:01.949Z,56.60
2022-09-12T12:11:06.534Z,56.52
2022-09-12T12:16:31.338Z,56.37
2022-09-12T12:21:52.254Z,56.43
2022-09-12T12:26:58.154Z,55.37
2022-09-12T12:32:06.528Z,55.18
2022-09-12T12:37:21.108Z,55.73
2022-09-12T12:42:34.558Z,56.15
2022-09-12T12:47:37.692Z,53.38
2022-09-12T12:52:50.639Z,50.08
2022-09-12T12:57:56.054Z,47.39
2022-09-12T13:03:01.543Z,48.74
2022-09-12T13:08:19.269Z,49.25
2022-09-12T13:14:02.082Z,49.53
2022-09-12T13:19:08.448Z,51.22
2022-09-12T13:24:17.142Z,51.95
2022-09-12T13:29:22.327Z,51.99
2022-09-12T13:34:26.301Z,52.71
2022-09-12T13:39:35.684Z,52.97
2022-09-12T13:44:50.934Z,53.06
2022-09-12T13:49:54.975Z,52.06
2022-09-12T13:54:59.579Z,52.08
2022-09-12T14:00:07.557Z,52.14
2022-09-12T14:05:22.417Z,52.76
2022-09-12T14:10:39.500Z,53.20
2022-09-12T14:15:47.492Z,53.55
2022-09-12T14:20:53.445Z,53.92
2022-09-12T14:26:00.004Z,54.58
2022-09-12T14:31:10.519Z,54.93
2022-09-12T14:36:24.493Z,55.08
2022-09-12T14:41:34.413Z,54.77
2022-09-12T14:46:39.216Z,54.14
2022-09-12T14:51:51.177Z,53.76
2022-09-12T14:56:55.583Z,49.13
2022-09-12T15:02:13.555Z,41.74
2022-09-12T15:07:22.837Z,35.73
2022-09-12T15:12:25.603Z,32.01
2022-09-12T15:17:28.506Z,29.42
2022-09-12T15:22:33.158Z,27.56
2022-09-12T15:27:35.864Z,27.12
2022-09-12T15:32:40.161Z,27.76
2022-09-12T15:37:42.803Z,30.39
2022-09-12T15:42:45.498Z,32.88
2022-09-12T15:47:48.300Z,35.75
2022-09-12T15:52:51.492Z,36.60
2022-09-12T15:57:54.512Z,35.86
2022-09-12T16:02:57.459Z,35.21
2022-09-12T16:08:00.408Z,35.11
2022-09-12T16:13:04.641Z,35.20
2022-09-12T16:18:08.075Z,33.75
2022-09-12T16:23:13.930Z,34.61
2022-09-12T16:28:16.570Z,36.57
2022-09-12T16:33:19.271Z,38.88
2022-09-12T16:38:22.604Z,41.00
2022-09-12T16:43:25.338Z,42.74
2022-09-12T16:48:28.049Z,44.58
2022-09-12T16:53:35.653Z,46.25
2022-09-12T16:58:42.069Z,47.73
2022-09-12T17:03:45.861Z,49.09
2022-09-12T17:08:51.063Z,50.40
2022-09-12T17:14:11.375Z,51.24
2022-09-12T17:19:22.328Z,52.15
2022-09-12T17:24:25.424Z,53.19
2022-09-12T17:29:28.743Z,54.33
2022-09-12T17:34:31.964Z,55.17
2022-09-12T17:39:34.597Z,56.11
2022-09-12T17:44:37.658Z,56.82
2022-09-12T17:49:40.678Z,57.29
2022-09-12T17:54:43.349Z,58.25
2022-09-12T17:59:45.977Z,58.71
2022-09-12T18:04:48.760Z,59.41
2022-09-12T18:09:51.715Z,59.99
2022-09-12T18:14:54.447Z,60.57
2022-09-12T18:19:57.133Z,60.86
2022-09-12T18:24:59.860Z,61.60
2022-09-12T18:30:20.611Z,62.16
2022-09-12T18:35:24.509Z,62.97
2022-09-12T18:40:27.135Z,63.47
2022-09-12T18:45:29.805Z,64.40
2022-09-12T18:50:33.322Z,64.55
2022-09-12T18:55:36.122Z,64.91
2022-09-12T19:00:41.110Z,65.72
2022-09-12T19:05:43.978Z,66.61
2022-09-12T19:10:54.868Z,67.54
2022-09-12T19:15:59.620Z,67.82
2022-09-12T19:21:04.061Z,68.41
2022-09-12T19:26:08.885Z,68.59
2022-09-12T19:31:14.296Z,68.95
2022-09-12T19:36:43.750Z,69.47
2022-09-12T19:41:43.012Z,69.66
2022-09-12T19:46:45.734Z,70.16
2022-09-12T19:51:48.535Z,70.48
2022-09-12T19:56:51.160Z,70.73
2022-09-12T20:01:53.946Z,70.39
2022-09-12T20:06:56.811Z,70.12
2022-09-12T20:11:59.441Z,70.08
2022-09-12T20:17:02.101Z,70.35
2022-09-12T20:22:05.156Z,70.75
2022-09-12T20:27:08.217Z,71.14
2022-09-12T20:32:11.565Z,71.52
2022-09-12T20:37:14.719Z,71.99
2022-09-12T20:42:17.355Z,71.87
2022-09-12T20:47:20.034Z,71.61
2022-09-12T20:52:22.684Z,71.56
2022-09-12T20:57:25.557Z,71.36
2022-09-12T21:02:29.990Z,71.33
2022-09-12T21:07:32.979Z,71.52
2022-09-12T21:12:35.585Z,72.34
2022-09-12T21:17:38.277Z,73.05
2022-09-12T21:22:40.973Z,72.93
2022-09-12T21:27:43.593Z,73.12
2022-09-12T21:32:46.377Z,73.75
2022-09-12T21:37:52.989Z,74.14
2022-09-12T21:42:55.760Z,74.20
2022-09-12T21:47:58.973Z,74.21
2022-09-12T21:53:01.654Z,74.21
2022-09-12T21:58:04.313Z,74.20
2022-09-12T22:03:08.271Z,74.01
2022-09-12T22:08:11.731Z,73.81
2022-09-12T22:13:14.409Z,73.85
2022-09-12T22:18:17.018Z,73.40
2022-09-12T22:23:38.039Z,73.42
2022-09-12T22:28:41.623Z,73.39
2022-09-12T22:33:44.976Z,73.75
2022-09-12T22:38:47.742Z,73.72
2022-09-12T22:43:50.570Z,73.29
2022-09-12T22:48:55.790Z,73.47
2022-09-12T22:53:59.178Z,73.21
2022-09-12T22:59:02.150Z,73.58
2022-09-12T23:04:05.461Z,74.61
2022-09-12T23:09:08.160Z,74.70
2022-09-12T23:14:10.830Z,74.71
2022-09-12T23:19:13.660Z,74.80
2022-09-12T23:24:16.436Z,74.94
2022-09-12T23:29:19.045Z,75.13
2022-09-12T23:34:21.752Z,74.79
2022-09-12T23:39:24.555Z,74.55
2022-09-12T23:44:27.247Z,74.26
2022-09-12T23:49:30.270Z,74.18
2022-09-12T23:54:32.959Z,73.88
2022-09-12T23:59:35.626Z,73.97
